This is the latest recevied weather packets stored in our database for station/object KG4QXL-1. If no packets are shown the sender has not sent any weather packets the latest 10 day(s).
| Time | Temp. | Humidity | Pressure | Rain* | Wind** | Luminosity | Snow |
|---|---|---|---|---|---|---|---|
| 1777705558 | 10° C | 58% | 1021.1 hPa | 0 mm | - | 0 W/m² | - |
| 1777700758 | 11.11° C | 60% | 1021.2 hPa | 0 mm | - | 0 W/m² | - |
| 1777697158 | 11.67° C | 58% | 1020.8 hPa | 0 mm | - | 0 W/m² | - |
| 1777695358 | 12.22° C | 58% | 1020.8 hPa | 0 mm | - | 0 W/m² | - |
| 1777694758 | 12.22° C | 56% | 1020.7 hPa | 0 mm | - | 0 W/m² | - |
| 1777694178 | 12.22° C | 56% | 1020.4 hPa | 0 mm | - | 0 W/m² | - |
| 1777692378 | 12.78° C | 60% | 1020.1 hPa | 0 mm | - | 0 W/m² | - |
| 1777689358 | 13.33° C | 60% | 1019.3 hPa | 0 mm | - | 0 W/m² | - |
| 1777686358 | 13.33° C | 60% | 1018.8 hPa | 0 mm | - | 0 W/m² | - |
| 1777683959 | 13.33° C | 65% | 1017.4 hPa | 0 mm | - | 0 W/m² | - |
| 1777681559 | 15° C | 59% | 1016.4 hPa | 0 mm | - | 0 W/m² | - |
| 1777680958 | 15° C | 53% | 1016.2 hPa | 0 mm | - | 1 W/m² | - |
| 1777680358 | 15.56° C | 48% | 1015.9 hPa | 0 mm | - | 1 W/m² | - |
| 1777679158 | 16.11° C | 47% | 1015.8 hPa | 0 mm | - | 5 W/m² | - |
| 1777677958 | 16.67° C | 44% | 1015.4 hPa | 0 mm | - | 12 W/m² | - |
| 1777676179 | 17.78° C | 40% | 1015.1 hPa | 0 mm | - | 38 W/m² | - |
| 1777673758 | 19.44° C | 36% | 1015 hPa | 0 mm | - | 106 W/m² | - |
| 1777668959 | 18.89° C | 36% | 1015.5 hPa | 0 mm | - | 143 W/m² | - |
| 1777668358 | 18.33° C | 36% | 1015.5 hPa | 0 mm | - | 395 W/m² | - |
| 1777665358 | 20° C | 34% | 1015.9 hPa | 0 mm | - | 579 W/m² | - |
| 1777664758 | 20° C | 33% | 1016.3 hPa | 0 mm | - | 611 W/m² | - |
| 1777664158 | 20.56° C | 34% | 1016.3 hPa | 0 mm | - | 659 W/m² | - |
| 1777658158 | 18.89° C | 34% | 1018 hPa | 0 mm | - | 591 W/m² | - |
| 1777656358 | 17.78° C | 36% | 1018.6 hPa | 0 mm | - | 802 W/m² | - |
| 1777654558 | 17.22° C | 42% | 1019 hPa | 0 mm | - | 783 W/m² | - |
* Rain latest hour (hover to see other rain measurements)
** Current wind speed in m/s (hover to see current wind gust speed)